Time;durP1;ratioP1;P1;durP2;ratioP2;P2;SDS_P1;SDS_P2;PMS_P1;PMS_P2;Temp;Humidity;BMP_temperature;BMP_pressure;BME280_temperature;BME280_humidity;BME280_pressure;Samples;Min_cycle;Max_cycle;Signal;HPM_P1;HPM_P2
2023/02/10 00:01:43;;;;;;;21.17;14.23;;;;;;;3.99;41.11;103161.16;4907630;29;20044;-82
2023/02/10 00:04:12;;;;;;;21.17;14.13;;;;;;;4.01;41.14;103161.13;4904192;29;20131;-82
2023/02/10 00:06:42;;;;;;;23.08;13.88;;;;;;;4.00;41.21;103168.38;4902335;28;20098;-82
2023/02/10 00:09:12;;;;;;;24.23;15.55;;;;;;;4.01;41.33;103170.16;4922736;29;20051;-82
2023/02/10 00:12:00;;;;;;;25.65;16.15;;;;;;;4.02;41.27;103162.94;4898601;28;20147;-81
2023/02/10 00:14:29;;;;;;;25.58;15.63;;;;;;;4.00;41.41;103165.66;4909665;29;20123;-82
2023/02/10 00:16:57;;;;;;;24.92;16.02;;;;;;;4.01;41.25;103161.13;4900065;28;20078;-82
2023/02/10 00:19:27;;;;;;;24.33;16.23;;;;;;;4.03;41.49;103165.59;4909196;29;20043;-81
2023/02/10 00:21:56;;;;;;;26.35;16.10;;;;;;;4.03;41.55;103171.03;4908594;28;20055;-82
2023/02/10 00:24:24;;;;;;;24.30;15.40;;;;;;;4.04;41.49;103175.53;4908305;29;20099;-82
2023/02/10 00:26:52;;;;;;;23.90;14.85;;;;;;;4.05;41.54;103181.84;4917944;29;20047;-80
2023/02/10 00:29:21;;;;;;;26.58;15.90;;;;;;;4.05;41.47;103177.31;4912025;29;20086;-81
2023/02/10 00:31:48;;;;;;;27.70;15.90;;;;;;;4.06;41.43;103178.16;4905859;29;20053;-81
2023/02/10 00:34:18;;;;;;;26.75;16.70;;;;;;;4.09;41.58;103186.25;4902012;28;20055;-81
2023/02/10 00:36:46;;;;;;;24.52;15.70;;;;;;;4.09;41.49;103186.25;4908285;29;20037;-81
2023/02/10 00:39:16;;;;;;;27.58;16.10;;;;;;;4.10;41.56;103194.34;4930732;28;20046;-81
2023/02/10 00:41:44;;;;;;;26.05;16.02;;;;;;;4.09;41.66;103186.25;4909194;29;20467;-81
2023/02/10 00:44:12;;;;;;;26.38;16.25;;;;;;;4.11;41.72;103184.38;4910313;28;20039;-82
2023/02/10 00:46:39;;;;;;;25.33;16.35;;;;;;;4.11;41.56;103179.88;4907935;29;20383;-81
2023/02/10 00:49:07;;;;;;;28.63;16.40;;;;;;;4.12;41.38;103178.94;4906060;29;20074;-81
2023/02/10 00:51:35;;;;;;;26.05;15.70;;;;;;;4.13;41.43;103178.00;4902731;29;20308;-81
2023/02/10 00:54:03;;;;;;;26.15;16.52;;;;;;;4.14;41.58;103178.91;4903886;29;20045;-82
2023/02/10 00:56:34;;;;;;;27.02;16.05;;;;;;;4.16;41.53;103188.75;4906249;29;20372;-81
2023/02/10 00:59:02;;;;;;;27.40;16.23;;;;;;;4.15;41.56;103183.38;4904953;29;20072;-82
2023/02/10 01:01:30;;;;;;;26.05;16.52;;;;;;;4.16;41.55;103186.06;4903135;28;20080;-81
2023/02/10 01:03:58;;;;;;;28.80;17.25;;;;;;;4.16;41.66;103187.88;4903470;29;20040;-81
2023/02/10 01:06:28;;;;;;;25.50;16.30;;;;;;;4.15;41.57;103172.53;4901030;29;20386;-80
2023/02/10 01:08:56;;;;;;;28.05;16.60;;;;;;;4.16;41.55;103187.88;4913485;28;20044;-80
2023/02/10 01:11:24;;;;;;;28.15;17.48;;;;;;;4.18;41.63;103190.56;4898317;29;20055;-80
2023/02/10 01:13:53;;;;;;;22.98;15.98;;;;;;;4.18;41.66;103190.56;4904463;28;20051;-80
2023/02/10 01:16:21;;;;;;;26.20;17.13;;;;;;;4.18;41.72;103190.56;4905779;29;20406;-81
2023/02/10 01:18:50;;;;;;;24.80;16.77;;;;;;;4.17;41.63;103192.38;4909317;29;20160;-80
2023/02/10 01:21:20;;;;;;;27.08;16.48;;;;;;;4.19;41.91;103195.03;4911280;28;20051;-81
2023/02/10 01:26:31;;;;;;;29.97;17.20;;;;;;;4.15;41.82;103200.53;4908158;29;20076;-81
2023/02/10 01:29:01;;;;;;;27.88;16.23;;;;;;;4.19;41.84;103206.78;4903426;29;20447;-81
2023/02/10 01:31:28;;;;;;;25.45;15.85;;;;;;;4.17;41.62;103200.50;4910805;29;20076;-81
2023/02/10 01:33:57;;;;;;;26.45;15.55;;;;;;;4.18;41.89;103204.09;4914625;28;20048;-81
2023/02/10 01:36:26;;;;;;;26.55;17.08;;;;;;;4.19;41.54;103201.34;4919056;29;20120;-80
2023/02/10 01:38:54;;;;;;;27.50;16.73;;;;;;;4.18;41.68;103205.00;5005973;28;20388;-81
2023/02/10 01:41:24;;;;;;;26.10;15.93;;;;;;;4.20;41.81;103213.09;4914549;29;20056;-81
2023/02/10 01:43:59;;;;;;;26.38;16.40;;;;;;;4.20;42.42;103216.69;4909781;28;20045;-81
2023/02/10 01:46:29;;;;;;;25.42;16.27;;;;;;;4.21;42.00;103217.59;4906281;28;20084;-82
2023/02/10 01:48:59;;;;;;;30.00;16.00;;;;;;;4.20;41.90;103215.81;4911356;29;20052;-82
2023/02/10 01:51:34;;;;;;;28.85;16.25;;;;;;;4.21;42.59;103215.78;4920243;28;20270;-81
2023/02/10 01:54:03;;;;;;;25.15;15.55;;;;;;;4.19;42.02;103212.19;4911500;28;20045;-82
2023/02/10 01:56:33;;;;;;;27.35;16.15;;;;;;;4.20;42.06;103213.09;4900797;28;20507;-81
2023/02/10 01:59:01;;;;;;;28.88;16.80;;;;;;;4.19;41.76;103214.91;4909569;28;20518;-81
2023/02/10 02:01:31;;;;;;;24.75;14.88;;;;;;;4.20;41.89;103215.81;4914710;29;20059;-80
2023/02/10 02:04:02;;;;;;;29.38;17.13;;;;;;;4.19;41.97;103219.44;4918291;29;20072;-81
2023/02/10 02:06:30;;;;;;;25.60;16.25;;;;;;;4.18;42.32;103226.69;4932486;29;20130;-81
2023/02/10 02:08:59;;;;;;;27.63;16.35;;;;;;;4.18;42.03;103223.06;4917818;28;20131;-80
2023/02/10 02:11:36;;;;;;;28.15;15.73;;;;;;;4.17;42.52;103224.88;4914367;29;20094;-81
2023/02/10 02:14:13;;;;;;;28.98;16.58;;;;;;;4.19;42.58;103231.19;4909188;29;20091;-80
2023/02/10 02:17:07;;;;;;;26.95;16.20;;;;;;;4.15;43.11;103226.72;4916530;29;20325;-80
2023/02/10 02:23:20;;;;;;;26.33;15.95;;;;;;;4.15;42.81;103229.44;4911958;28;20084;-81
2023/02/10 02:26:01;;;;;;;25.13;15.48;;;;;;;4.13;42.94;103232.22;4908267;28;20587;-81
2023/02/10 02:28:46;;;;;;;28.40;16.40;;;;;;;4.15;42.71;103229.44;4931776;28;20054;-80
2023/02/10 02:31:41;;;;;;;28.42;17.10;;;;;;;4.14;43.13;103230.41;4935412;28;20048;-81
2023/02/10 02:34:13;;;;;;;27.92;15.95;;;;;;;4.11;42.35;103239.47;4934751;28;20060;-80
2023/02/10 02:36:51;;;;;;;30.73;17.05;;;;;;;4.09;42.41;103238.63;4937920;28;20351;-81
2023/02/10 02:39:19;;;;;;;25.83;16.67;;;;;;;4.09;42.08;103227.78;4931208;28;20063;-82
2023/02/10 02:41:47;;;;;;;28.73;17.40;;;;;;;4.10;42.21;103239.50;4933546;29;20102;-82
2023/02/10 02:44:16;;;;;;;24.95;15.57;;;;;;;4.08;42.32;103231.41;4938295;28;20039;-83
2023/02/10 02:46:56;;;;;;;27.63;15.82;;;;;;;4.11;43.06;103239.47;5041699;23;20493;-76
2023/02/10 02:49:34;;;;;;;28.77;16.40;;;;;;;4.10;42.66;103242.22;4941712;28;20089;-76
2023/02/10 02:52:06;;;;;;;31.17;16.00;;;;;;;4.09;42.76;103238.63;4942022;28;20075;-76
2023/02/10 02:54:42;;;;;;;29.45;17.05;;;;;;;4.08;43.31;103239.53;4944220;28;20035;-76
2023/02/10 02:57:18;;;;;;;25.15;15.68;;;;;;;4.08;43.19;103241.34;4925132;29;20047;-76
2023/02/10 02:59:51;;;;;;;26.52;16.17;;;;;;;4.09;42.88;103248.56;4919007;29;20043;-76
2023/02/10 03:02:21;;;;;;;27.88;16.42;;;;;;;4.08;42.40;103252.19;4927413;28;20052;-77
2023/02/10 03:04:50;;;;;;;27.63;16.50;;;;;;;4.07;42.47;103250.41;4914289;29;20383;-76
2023/02/10 03:07:18;;;;;;;29.10;16.55;;;;;;;4.08;42.57;103246.78;4941545;29;20047;-76
2023/02/10 03:09:46;;;;;;;31.02;17.90;;;;;;;4.08;42.69;103242.25;4928951;28;20040;-76
2023/02/10 03:12:14;;;;;;;28.08;16.30;;;;;;;4.09;42.57;103245.84;4930366;29;20431;-76
2023/02/10 03:14:42;;;;;;;27.65;16.52;;;;;;;4.08;42.53;103244.06;4927426;28;20047;-77
2023/02/10 03:17:10;;;;;;;29.02;17.00;;;;;;;4.09;42.69;103251.28;4933825;29;20055;-77
2023/02/10 03:19:39;;;;;;;28.15;17.08;;;;;;;4.10;42.60;103244.94;4921955;29;20040;-77
2023/02/10 03:22:07;;;;;;;25.40;15.85;;;;;;;4.08;42.85;103241.34;4918380;29;20047;-76
2023/02/10 03:24:35;;;;;;;25.75;15.90;;;;;;;4.08;42.56;103242.25;4920076;29;20150;-76
2023/02/10 03:27:05;;;;;;;30.92;17.90;;;;;;;4.07;42.55;103235.03;4917719;29;20529;-76
2023/02/10 03:29:33;;;;;;;27.33;16.88;;;;;;;4.08;42.63;103222.38;4925907;29;20042;-77
2023/02/10 03:32:01;;;;;;;29.30;16.95;;;;;;;4.08;42.58;103215.16;4922568;29;20447;-77
2023/02/10 03:34:29;;;;;;;29.75;16.48;;;;;;;4.07;42.83;103213.38;4928060;29;20533;-76
2023/02/10 03:36:58;;;;;;;28.77;17.95;;;;;;;4.08;42.79;103212.44;4923186;29;20043;-77
2023/02/10 03:39:26;;;;;;;30.33;17.48;;;;;;;4.07;42.64;103213.38;4922530;29;20609;-77
2023/02/10 03:41:54;;;;;;;27.30;17.10;;;;;;;4.06;42.67;103203.44;4929851;28;20385;-77
2023/02/10 03:44:22;;;;;;;28.67;16.65;;;;;;;4.06;42.41;103203.44;4915704;29;20052;-76
2023/02/10 03:46:50;;;;;;;28.13;16.83;;;;;;;4.06;42.74;103202.56;4919808;28;20036;-76
2023/02/10 03:49:18;;;;;;;27.63;16.85;;;;;;;4.06;42.73;103194.44;4923387;29;20125;-77
2023/02/10 03:51:45;;;;;;;31.65;18.27;;;;;;;4.04;42.79;103197.19;4927156;28;20050;-76
2023/02/10 03:54:14;;;;;;;27.50;16.63;;;;;;;4.05;42.91;103201.69;4922738;28;20102;-77
2023/02/10 03:56:42;;;;;;;28.45;16.60;;;;;;;4.02;42.88;103211.69;4919371;29;20058;-77
2023/02/10 03:59:10;;;;;;;32.63;17.77;;;;;;;4.01;42.68;103215.31;4926974;29;20097;-77
2023/02/10 04:01:38;;;;;;;31.60;19.20;;;;;;;3.99;42.70;103212.66;4915838;28;20044;-77
2023/02/10 04:04:06;;;;;;;28.38;17.98;;;;;;;3.96;42.71;103223.56;4933394;28;20096;-77
2023/02/10 04:06:33;;;;;;;28.85;18.05;;;;;;;3.93;42.67;103220.91;4959033;28;20048;-76
2023/02/10 04:09:01;;;;;;;30.50;17.48;;;;;;;3.91;42.62;103225.47;4947148;28;20048;-77
2023/02/10 04:11:30;;;;;;;29.38;16.85;;;;;;;3.89;42.77;103230.06;4941316;28;20097;-76
2023/02/10 04:13:58;;;;;;;30.50;17.17;;;;;;;3.85;42.65;103232.84;4988497;28;20165;-76
2023/02/10 04:16:27;;;;;;;30.10;18.33;;;;;;;3.82;42.76;103238.31;4992961;28;20417;-76
2023/02/10 04:18:55;;;;;;;26.98;16.50;;;;;;;3.78;43.02;103245.63;4961833;28;20067;-77
2023/02/10 04:21:24;;;;;;;28.65;16.33;;;;;;;3.75;42.81;103242.97;5009399;28;20055;-77
2023/02/10 04:23:52;;;;;;;26.85;16.08;;;;;;;3.73;42.75;103239.41;4952420;28;20074;-77
2023/02/10 04:26:20;;;;;;;26.85;16.05;;;;;;;3.69;42.85;103232.28;4949326;28;20092;-77
2023/02/10 04:28:49;;;;;;;27.67;15.95;;;;;;;3.67;42.85;103237.72;5016195;28;20323;-77
2023/02/10 04:31:17;;;;;;;28.65;16.02;;;;;;;3.64;42.67;103239.63;4965584;28;20109;-77
2023/02/10 04:33:45;;;;;;;29.67;17.00;;;;;;;3.61;42.74;103236.97;5004082;28;20049;-77
2023/02/10 04:36:13;;;;;;;26.80;16.42;;;;;;;3.56;42.80;103239.78;4947635;28;20871;-77
2023/02/10 04:38:40;;;;;;;26.83;17.30;;;;;;;3.54;42.68;103232.63;4933955;28;20295;-77
2023/02/10 04:41:08;;;;;;;24.92;15.75;;;;;;;3.50;42.75;103239.88;4963325;28;20060;-76
2023/02/10 04:43:36;;;;;;;27.77;16.10;;;;;;;3.46;42.86;103242.72;4987811;28;20576;-77
2023/02/10 04:46:05;;;;;;;28.77;16.77;;;;;;;3.43;42.80;103248.16;4945408;28;20678;-77
2023/02/10 04:48:34;;;;;;;29.15;18.27;;;;;;;3.38;42.79;103253.69;4991776;28;20108;-77
2023/02/10 04:51:07;;;;;;;23.05;15.18;;;;;;;3.35;43.34;103253.72;4947584;28;20510;-76
2023/02/10 04:53:35;;;;;;;26.90;16.30;;;;;;;3.29;42.79;103259.25;5016222;28;20047;-77
2023/02/10 04:56:03;;;;;;;29.00;16.02;;;;;;;3.25;42.93;103262.91;4985795;28;20461;-77
2023/02/10 04:58:31;;;;;;;27.35;16.00;;;;;;;3.21;42.95;103261.19;4951474;28;20039;-76
2023/02/10 05:00:59;;;;;;;25.63;15.23;;;;;;;3.18;43.00;103262.13;4943968;28;20035;-77
2023/02/10 05:03:28;;;;;;;25.90;16.00;;;;;;;3.16;42.96;103263.97;4956942;28;20051;-76
2023/02/10 05:05:56;;;;;;;25.55;15.18;;;;;;;3.12;43.01;103251.44;4960606;28;20035;-77
2023/02/10 05:08:24;;;;;;;25.13;15.73;;;;;;;3.10;43.08;103253.28;4965282;28;20043;-77
2023/02/10 05:10:53;;;;;;;24.83;14.95;;;;;;;3.09;43.09;103256.88;4952448;28;20043;-77
2023/02/10 05:13:21;;;;;;;26.20;15.93;;;;;;;3.06;43.10;103256.06;5004375;28;20444;-77
2023/02/10 05:15:48;;;;;;;27.17;15.85;;;;;;;3.06;43.06;103258.78;4940959;28;20207;-77
2023/02/10 05:18:16;;;;;;;28.17;15.80;;;;;;;3.03;43.12;103255.19;4979665;28;20078;-77
2023/02/10 05:20:46;;;;;;;27.00;15.70;;;;;;;3.02;43.08;103256.13;4948998;28;20054;-77
2023/02/10 05:23:13;;;;;;;27.50;16.10;;;;;;;3.00;43.03;103257.06;4970208;28;20497;-77
2023/02/10 05:25:41;;;;;;;25.35;14.93;;;;;;;2.97;43.10;103255.31;4947363;28;20047;-77
2023/02/10 05:28:09;;;;;;;24.58;15.23;;;;;;;2.96;43.16;103252.63;4950434;28;20047;-77
2023/02/10 05:30:37;;;;;;;22.75;14.98;;;;;;;2.94;42.79;103254.47;4957355;28;20170;-76
2023/02/10 05:33:05;;;;;;;28.20;15.93;;;;;;;2.92;43.13;103261.72;5013461;28;20136;-76
2023/02/10 05:35:32;;;;;;;26.48;15.93;;;;;;;2.90;43.32;103259.06;4963495;28;20037;-77
2023/02/10 05:38:02;;;;;;;28.60;16.20;;;;;;;2.90;43.23;103277.09;4969526;28;20173;-76
2023/02/10 05:40:30;;;;;;;25.90;16.77;;;;;;;2.84;43.26;103267.25;4962387;28;20304;-77
2023/02/10 05:42:58;;;;;;;26.98;16.98;;;;;;;2.84;43.12;103274.47;4964945;28;20057;-76
2023/02/10 05:45:26;;;;;;;25.77;15.93;;;;;;;2.80;43.08;103276.34;4952291;28;20108;-76
2023/02/10 05:47:53;;;;;;;28.65;16.77;;;;;;;2.76;43.24;103279.13;5009468;28;20040;-76
2023/02/10 05:50:21;;;;;;;28.75;16.63;;;;;;;2.74;43.10;103281.84;4956835;28;20494;-77
2023/02/10 05:52:49;;;;;;;27.50;16.90;;;;;;;2.69;43.13;103277.44;4961602;28;20055;-77
2023/02/10 05:55:18;;;;;;;31.63;17.70;;;;;;;2.66;43.23;103277.50;4969360;28;20043;-76
2023/02/10 05:57:46;;;;;;;28.48;17.70;;;;;;;2.60;43.21;103276.66;5015044;28;20545;-77
2023/02/10 06:00:16;;;;;;;28.77;16.95;;;;;;;2.57;43.13;103282.13;4949494;28;20055;-77
2023/02/10 06:02:43;;;;;;;28.58;17.90;;;;;;;2.52;43.15;103278.59;4966184;28;20406;-77
2023/02/10 06:05:11;;;;;;;26.98;16.75;;;;;;;2.51;43.34;103286.72;4950501;28;20047;-77
2023/02/10 06:07:39;;;;;;;29.10;17.27;;;;;;;2.46;43.38;103286.81;4960532;28;20482;-77
2023/02/10 06:10:07;;;;;;;25.88;15.70;;;;;;;2.44;43.50;103280.53;4964216;28;20043;-77
2023/02/10 06:12:36;;;;;;;25.83;16.63;;;;;;;2.43;43.62;103286.84;4962938;28;20067;-78
2023/02/10 06:15:05;;;;;;;27.05;16.60;;;;;;;2.42;43.82;103284.16;4950958;28;20482;-76
2023/02/10 06:17:33;;;;;;;28.63;17.13;;;;;;;2.41;43.74;103287.81;4968572;28;20039;-77
2023/02/10 06:20:00;;;;;;;29.23;16.45;;;;;;;2.41;43.86;103288.66;4994725;28;20053;-77
2023/02/10 06:22:28;;;;;;;28.58;16.35;;;;;;;2.40;43.93;103283.31;4969045;28;20047;-77
2023/02/10 06:24:56;;;;;;;28.35;16.65;;;;;;;2.39;43.66;103286.91;4950177;28;20047;-77
2023/02/10 06:27:25;;;;;;;29.63;17.15;;;;;;;2.40;43.79;103286.00;5002106;28;20053;-77
2023/02/10 06:29:54;;;;;;;30.10;16.35;;;;;;;2.39;44.02;103293.22;4947841;28;20047;-77
2023/02/10 06:32:22;;;;;;;25.38;15.93;;;;;;;2.38;44.01;103296.84;4963130;28;20039;-76
2023/02/10 06:34:50;;;;;;;25.63;15.23;;;;;;;2.40;43.85;103294.13;4983352;28;20108;-76
2023/02/10 06:37:17;;;;;;;28.95;18.05;;;;;;;2.40;43.88;103302.22;4954907;28;20058;-77
2023/02/10 06:39:45;;;;;;;28.85;17.27;;;;;;;2.41;44.07;103306.72;4949866;28;20043;-76
2023/02/10 06:42:13;;;;;;;31.00;18.75;;;;;;;2.39;44.03;103313.94;4958551;28;20042;-75
2023/02/10 06:44:41;;;;;;;28.27;17.50;;;;;;;2.38;43.97;103321.16;4964920;28;20050;-77
2023/02/10 06:47:10;;;;;;;29.17;17.13;;;;;;;2.39;44.15;103322.06;4959162;28;20058;-76
2023/02/10 06:49:39;;;;;;;27.65;17.70;;;;;;;2.37;43.96;103326.59;4942517;28;20462;-76
2023/02/10 06:52:07;;;;;;;27.70;16.92;;;;;;;2.35;44.10;103329.31;4966564;28;20044;-77
2023/02/10 06:54:43;;;;;;;29.58;16.58;;;;;;;2.35;43.98;103328.41;4954744;28;20468;-77
2023/02/10 06:57:11;;;;;;;27.92;17.10;;;;;;;2.34;44.15;103326.63;4988448;28;20103;-77
2023/02/10 06:59:39;;;;;;;26.45;16.75;;;;;;;2.32;44.15;103329.38;4939433;28;20138;-76
2023/02/10 07:02:11;;;;;;;28.55;16.92;;;;;;;2.31;44.07;103332.97;4981710;28;20037;-76
2023/02/10 07:04:39;;;;;;;29.10;17.20;;;;;;;2.30;44.13;103335.69;4943114;28;20106;-77
2023/02/10 07:07:07;;;;;;;30.40;17.52;;;;;;;2.29;44.23;103321.28;4978698;28;20039;-76
2023/02/10 07:09:34;;;;;;;29.27;18.02;;;;;;;2.28;44.34;103324.91;4948778;28;20051;-76
2023/02/10 07:12:02;;;;;;;33.05;18.45;;;;;;;2.27;44.48;103317.69;4948449;28;20436;-76
2023/02/10 07:14:30;;;;;;;27.05;16.98;;;;;;;2.25;44.46;103315.00;4946707;28;20044;-77
2023/02/10 07:16:58;;;;;;;27.38;16.27;;;;;;;2.26;44.34;103324.03;4947516;28;20686;-76
2023/02/10 07:19:27;;;;;;;25.73;16.10;;;;;;;2.27;44.54;103320.41;4953190;28;20055;-76
2023/02/10 07:21:55;;;;;;;25.85;16.13;;;;;;;2.25;44.39;103320.41;4965120;28;20059;-77
2023/02/10 07:24:23;;;;;;;28.25;16.75;;;;;;;2.26;44.56;103324.91;4986327;28;20082;-77
2023/02/10 07:26:51;;;;;;;28.60;16.95;;;;;;;2.27;44.50;103317.69;5000070;28;20493;-77
2023/02/10 07:29:19;;;;;;;25.40;16.52;;;;;;;2.28;44.43;103310.50;4943948;28;20108;-77
2023/02/10 07:31:47;;;;;;;27.50;16.15;;;;;;;2.29;44.44;103309.59;4963266;28;20047;-77
2023/02/10 07:34:15;;;;;;;28.30;16.52;;;;;;;2.30;44.45;103322.19;4973847;28;20051;-77
2023/02/10 07:36:44;;;;;;;30.50;16.48;;;;;;;2.33;44.65;103322.16;4976096;28;20040;-77
2023/02/10 07:39:12;;;;;;;28.45;16.27;;;;;;;2.33;44.76;103323.00;4952495;28;20381;-77
2023/02/10 07:41:40;;;;;;;26.05;16.27;;;;;;;2.36;44.64;103319.38;4947443;28;20109;-77
2023/02/10 07:44:10;;;;;;;28.00;17.80;;;;;;;2.36;44.79;103328.38;4956398;28;20066;-76
2023/02/10 07:46:51;;;;;;;27.73;16.73;;;;;;;2.39;44.91;103320.25;4958738;28;20043;-76
2023/02/10 07:49:41;;;;;;;;;;;;;;;;;;;;;
2023/02/10 07:52:12;;;;;;;27.88;15.80;;;;;;;2.41;44.67;103325.63;4947928;28;20121;-77
2023/02/10 07:54:40;;;;;;;27.52;16.65;;;;;;;2.42;44.83;103333.69;4999935;28;20040;-77
2023/02/10 07:57:08;;;;;;;28.92;17.73;;;;;;;2.43;44.59;103327.38;4949081;28;20386;-76
2023/02/10 07:59:35;;;;;;;28.40;18.45;;;;;;;2.45;44.69;103330.06;4952701;28;20413;-76
2023/02/10 08:02:03;;;;;;;29.30;17.63;;;;;;;2.46;44.58;103329.16;4956213;28;20070;-76
2023/02/10 08:04:31;;;;;;;28.25;17.02;;;;;;;2.46;44.45;103330.06;4942491;28;20040;-76
2023/02/10 08:10:02;;;;;;;29.17;17.20;;;;;;;2.50;45.72;103339.00;4940729;28;20040;-77
2023/02/10 08:12:39;;;;;;;31.75;19.25;;;;;;;2.43;44.76;103332.78;4927786;29;20087;-77
2023/02/10 08:15:07;;;;;;;30.27;18.27;;;;;;;2.46;44.45;103330.06;4956379;28;20047;-77
2023/02/10 08:17:36;;;;;;;29.77;17.50;;;;;;;2.47;44.55;103339.06;4972448;28;20351;-76
2023/02/10 08:20:05;;;;;;;29.02;16.45;;;;;;;2.49;44.63;103345.34;4978704;28;20029;-76
2023/02/10 08:22:34;;;;;;;29.85;16.50;;;;;;;2.49;44.94;103348.03;4991316;28;21209;-76
2023/02/10 08:25:05;;;;;;;31.55;17.75;;;;;;;2.52;45.10;103356.09;4973256;28;20041;-76
2023/02/10 08:27:33;;;;;;;30.27;17.30;;;;;;;2.52;44.89;103350.69;4947545;28;20574;-76
2023/02/10 08:30:00;;;;;;;27.75;16.83;;;;;;;2.53;44.81;103366.88;4899917;28;20036;-76
2023/02/10 08:32:28;;;;;;;28.63;17.50;;;;;;;2.56;44.99;103363.25;4963702;28;20453;-77
2023/02/10 08:34:56;;;;;;;28.80;17.15;;;;;;;2.56;44.89;103357.84;4983313;28;20039;-77
2023/02/10 08:37:24;;;;;;;34.78;19.08;;;;;;;2.60;45.06;103356.88;4980154;28;20070;-77
2023/02/10 08:39:52;;;;;;;33.13;17.88;;;;;;;2.62;45.37;103365.88;4934893;28;20055;-77
2023/02/10 08:42:21;;;;;;;29.85;17.73;;;;;;;2.65;45.01;103360.41;4951977;28;20486;-76
2023/02/10 08:44:49;;;;;;;28.58;18.05;;;;;;;2.67;45.06;103353.16;4987591;28;20457;-77
2023/02/10 08:47:17;;;;;;;31.52;18.23;;;;;;;2.69;45.19;103354.03;4967266;28;20047;-77
2023/02/10 08:49:45;;;;;;;29.52;17.90;;;;;;;2.72;45.24;103363.91;4957249;28;20113;-78
2023/02/10 08:52:13;;;;;;;29.63;18.45;;;;;;;2.73;45.38;103358.50;4958423;28;20039;-77
2023/02/10 08:54:40;;;;;;;31.98;19.90;;;;;;;2.77;45.26;103362.94;4938891;28;20496;-77
2023/02/10 08:57:09;;;;;;;30.33;18.27;;;;;;;2.82;45.52;103360.16;4950131;28;20130;-77
2023/02/10 08:59:38;;;;;;;34.22;20.50;;;;;;;2.86;45.80;103361.88;4964683;28;20040;-77
2023/02/10 09:02:07;;;;;;;29.80;18.70;;;;;;;2.90;45.86;103369.94;4942605;29;20052;-77
2023/02/10 09:04:36;;;;;;;33.45;20.10;;;;;;;2.94;45.69;103373.47;4941863;28;20112;-76
2023/02/10 09:07:03;;;;;;;28.48;17.95;;;;;;;2.99;45.92;103367.06;4953308;28;20509;-77
2023/02/10 09:09:31;;;;;;;29.25;17.42;;;;;;;3.06;45.77;103367.00;4945551;28;20052;-77
2023/02/10 09:11:59;;;;;;;30.55;17.50;;;;;;;3.12;45.96;103361.47;4948586;28;20075;-77
2023/02/10 09:14:27;;;;;;;34.30;17.83;;;;;;;3.20;45.98;103365.84;4977459;28;20403;-77
2023/02/10 09:16:56;;;;;;;30.02;17.40;;;;;;;3.30;46.13;103363.88;4962432;28;20147;-77
2023/02/10 09:19:25;;;;;;;30.15;16.60;;;;;;;3.36;45.95;103370.09;4988155;28;20039;-77
2023/02/10 09:21:55;;;;;;;31.17;17.52;;;;;;;3.45;45.94;103374.47;4961869;28;20039;-77
2023/02/10 09:24:23;;;;;;;28.27;16.92;;;;;;;3.53;45.83;103380.63;4951017;28;20047;-77
2023/02/10 09:26:51;;;;;;;33.15;17.92;;;;;;;3.60;45.85;103371.47;4988911;28;20047;-77
2023/02/10 09:29:19;;;;;;;28.77;17.85;;;;;;;3.67;45.50;103375.84;5018996;28;20051;-77
2023/02/10 09:31:47;;;;;;;33.83;17.63;;;;;;;3.74;45.60;103379.31;4948668;28;20044;-77
2023/02/10 09:34:16;;;;;;;32.33;16.85;;;;;;;3.82;45.49;103376.47;4946840;28;20055;-77
2023/02/10 09:36:44;;;;;;;30.15;17.38;;;;;;;3.88;45.59;103379.09;4958441;28;20054;-77
2023/02/10 09:39:12;;;;;;;27.83;16.45;;;;;;;3.94;45.73;103371.72;4958063;28;20494;-77
2023/02/10 09:41:48;;;;;;;31.50;17.38;;;;;;;4.02;45.90;103382.41;4969561;28;20056;-77
2023/02/10 09:44:20;;;;;;;29.67;16.70;;;;;;;4.10;45.66;103391.28;4972490;28;20087;-77
2023/02/10 09:47:00;;;;;;;27.75;16.17;;;;;;;4.21;46.14;103396.47;4979308;28;20044;-77
2023/02/10 09:49:57;;;;;;;28.90;16.23;;;;;;;4.25;46.16;103382.81;4954247;28;20067;-77
2023/02/10 09:52:37;;;;;;;27.42;16.02;;;;;;;4.37;45.97;103382.56;4977098;28;20047;-77
2023/02/10 09:55:13;;;;;;;29.27;16.02;;;;;;;4.47;45.88;103386.84;4938483;28;20077;-75
2023/02/10 09:57:44;;;;;;;28.20;16.15;;;;;;;4.54;45.42;103383.09;4991816;28;20029;-77
2023/02/10 10:00:24;;;;;;;28.08;16.20;;;;;;;4.65;45.84;103393.69;4988649;28;20464;-77
2023/02/10 10:02:55;;;;;;;31.70;17.50;;;;;;;4.72;45.52;103392.63;5042988;28;20084;-77
2023/02/10 10:05:39;;;;;;;29.00;16.60;;;;;;;4.83;45.60;103403.22;4947850;28;20513;-77
2023/02/10 10:08:18;;;;;;;30.33;15.93;;;;;;;4.91;45.48;103404.84;5004593;28;20073;-76
2023/02/10 10:10:46;;;;;;;26.88;16.23;;;;;;;4.97;45.11;103397.47;4938491;28;20047;-77
2023/02/10 10:13:19;;;;;;;29.38;16.58;;;;;;;5.05;45.16;103390.94;4995378;28;20139;-77
2023/02/10 10:16:02;;;;;;;30.38;17.55;;;;;;;5.12;45.26;103387.16;4950949;28;20047;-77
2023/02/10 10:18:38;;;;;;;29.20;17.63;;;;;;;5.18;45.29;103389.75;4963399;28;20043;-76
2023/02/10 10:21:16;;;;;;;30.58;16.27;;;;;;;5.28;45.09;103388.59;4992127;28;20049;-76
2023/02/10 10:23:55;;;;;;;30.13;17.02;;;;;;;5.37;45.01;103387.47;4942722;28;20082;-77
2023/02/10 10:26:39;;;;;;;27.25;15.75;;;;;;;5.44;45.26;103391.81;4964602;28;20055;-77
2023/02/10 10:29:20;;;;;;;30.38;15.55;;;;;;;5.53;45.20;103398.81;4976619;28;20480;-77
2023/02/10 10:31:54;;;;;;;27.58;15.95;;;;;;;5.60;44.93;103405.88;4951008;29;20100;-77
2023/02/10 10:34:28;;;;;;;27.38;16.45;;;;;;;5.70;45.17;103398.38;4944113;28;20059;-76
2023/02/10 10:36:59;;;;;;;28.65;16.60;;;;;;;5.80;45.23;103402.59;4991292;28;20125;-77
2023/02/10 10:39:33;;;;;;;28.70;16.33;;;;;;;5.89;45.11;103397.81;4951157;28;20058;-77
2023/02/10 10:42:17;;;;;;;30.73;16.70;;;;;;;5.98;44.87;103402.09;5013291;28;20371;-77
2023/02/10 10:44:47;;;;;;;30.17;17.48;;;;;;;6.06;44.77;103398.25;4949091;28;20074;-77
2023/02/10 10:47:21;;;;;;;31.15;17.67;;;;;;;6.18;44.89;103398.84;4960293;28;20464;-80
2023/02/10 10:49:49;;;;;;;30.38;17.25;;;;;;;6.24;44.66;103391.38;4982440;28;20048;-77
2023/02/10 10:52:28;;;;;;;28.38;16.92;;;;;;;6.36;44.80;103388.31;5010603;28;20039;-77
2023/02/10 10:54:57;;;;;;;24.55;15.43;;;;;;;6.41;44.45;103382.72;4976713;28;20041;-78
2023/02/10 10:57:26;;;;;;;30.92;16.63;;;;;;;6.52;44.33;103387.84;5003474;28;20406;-78
2023/02/10 10:59:59;;;;;;;27.83;16.20;;;;;;;6.59;44.65;103371.28;4970581;28;20037;-77
2023/02/10 11:02:28;;;;;;;26.45;15.93;;;;;;;6.68;44.40;103378.28;4967687;28;20113;-77
2023/02/10 11:05:04;;;;;;;28.67;16.55;;;;;;;6.79;44.18;103374.28;4982790;28;20063;-78
2023/02/10 11:07:38;;;;;;;28.27;16.15;;;;;;;6.85;44.28;103381.41;4975840;28;20051;-78
2023/02/10 11:10:07;;;;;;;31.38;16.38;;;;;;;6.91;44.13;103364.84;4951597;28;20055;-77
2023/02/10 11:12:38;;;;;;;27.40;16.00;;;;;;;6.99;44.09;103360.03;4978497;28;20095;-77
2023/02/10 11:15:32;;;;;;;29.08;15.80;;;;;;;7.06;43.94;103363.47;4952790;28;20662;-77
2023/02/10 11:18:01;;;;;;;;;;;;;;;6.86;44.64;103364.09;4957650;28;20074;-77
2023/02/10 11:20:33;;;;;;;25.02;14.73;;;;;;;7.16;44.17;103356.75;4993371;28;19933;-77
2023/02/10 11:23:04;;;;;;;29.50;16.58;;;;;;;7.25;44.13;103361.91;4962380;28;20070;-77
2023/02/10 11:25:37;;;;;;;25.95;14.45;;;;;;;7.33;43.54;103348.03;4957305;28;20125;-77
2023/02/10 11:28:08;;;;;;;28.52;16.02;;;;;;;7.40;43.56;103349.59;4964190;28;20047;-77
2023/02/10 11:30:37;;;;;;;28.88;16.02;;;;;;;7.45;43.53;103353.91;4990324;28;20065;-77
2023/02/10 11:33:18;;;;;;;30.20;16.60;;;;;;;7.52;43.61;103355.47;4963540;28;20047;-77
2023/02/10 11:35:48;;;;;;;25.95;14.40;;;;;;;7.57;43.10;103339.88;4963964;28;20530;-78
2023/02/10 11:38:22;;;;;;;27.98;15.93;;;;;;;7.65;42.92;103341.44;4978233;28;20044;-77
2023/02/10 11:40:53;;;;;;;25.20;15.48;;;;;;;7.71;43.09;103335.75;4976088;28;20495;-77
2023/02/10 11:43:26;;;;;;;25.73;14.85;;;;;;;7.76;43.20;103339.22;4970012;28;20050;-77